sensor_id;sensor_type;location;lat;lon;timestamp;P1;durP1;ratioP1;P2;durP2;ratioP2
68872;SDS011;55907;50.806;12.882;2023-06-22T00:03:00;20.2;;;18.8;;
68872;SDS011;55907;50.806;12.882;2023-06-22T00:06:02;20.1;;;18.7;;
68872;SDS011;55907;50.806;12.882;2023-06-22T00:09:03;20.9;;;19.4;;
68872;SDS011;55907;50.806;12.882;2023-06-22T00:12:05;20.6;;;19.2;;
68872;SDS011;55907;50.806;12.882;2023-06-22T00:15:06;19.9;;;18.5;;
68872;SDS011;55907;50.806;12.882;2023-06-22T00:21:09;20.1;;;18.7;;
68872;SDS011;55907;50.806;12.882;2023-06-22T00:27:12;21.6;;;20.1;;
68872;SDS011;55907;50.806;12.882;2023-06-22T00:30:13;21.1;;;19.6;;
68872;SDS011;55907;50.806;12.882;2023-06-22T00:33:15;21.5;;;20.0;;
68872;SDS011;55907;50.806;12.882;2023-06-22T00:36:16;20.3;;;18.9;;
68872;SDS011;55907;50.806;12.882;2023-06-22T00:39:18;20.2;;;18.8;;
68872;SDS011;55907;50.806;12.882;2023-06-22T00:42:19;21.0;;;19.5;;
68872;SDS011;55907;50.806;12.882;2023-06-22T00:45:20;20.4;;;19.0;;
68872;SDS011;55907;50.806;12.882;2023-06-22T00:48:22;20.5;;;19.1;;
68872;SDS011;55907;50.806;12.882;2023-06-22T00:51:23;20.1;;;18.7;;
68872;SDS011;55907;50.806;12.882;2023-06-22T00:54:25;20.3;;;18.9;;
68872;SDS011;55907;50.806;12.882;2023-06-22T00:57:26;19.8;;;18.4;;
68872;SDS011;55907;50.806;12.882;2023-06-22T01:00:28;19.5;;;18.1;;
68872;SDS011;55907;50.806;12.882;2023-06-22T01:03:29;19.4;;;18.0;;
68872;SDS011;55907;50.806;12.882;2023-06-22T01:06:33;20.2;;;18.8;;
68872;SDS011;55907;50.806;12.882;2023-06-22T01:09:32;20.0;;;18.6;;
68872;SDS011;55907;50.806;12.882;2023-06-22T01:12:34;20.2;;;18.8;;
68872;SDS011;55907;50.806;12.882;2023-06-22T01:15:36;20.0;;;18.6;;
68872;SDS011;55907;50.806;12.882;2023-06-22T01:18:36;19.6;;;18.2;;
68872;SDS011;55907;50.806;12.882;2023-06-22T01:21:38;19.9;;;18.5;;
68872;SDS011;55907;50.806;12.882;2023-06-22T01:24:41;19.5;;;18.1;;
68872;SDS011;55907;50.806;12.882;2023-06-22T01:27:47;19.1;;;17.7;;
68872;SDS011;55907;50.806;12.882;2023-06-22T01:30:42;19.8;;;18.4;;
68872;SDS011;55907;50.806;12.882;2023-06-22T01:33:44;19.9;;;18.5;;
68872;SDS011;55907;50.806;12.882;2023-06-22T01:42:48;19.7;;;18.3;;
68872;SDS011;55907;50.806;12.882;2023-06-22T01:45:50;19.5;;;18.1;;
68872;SDS011;55907;50.806;12.882;2023-06-22T01:48:51;20.0;;;18.6;;
68872;SDS011;55907;50.806;12.882;2023-06-22T01:51:52;19.9;;;18.5;;
68872;SDS011;55907;50.806;12.882;2023-06-22T01:54:54;19.8;;;18.4;;
68872;SDS011;55907;50.806;12.882;2023-06-22T01:57:55;20.0;;;18.6;;
68872;SDS011;55907;50.806;12.882;2023-06-22T02:04:01;20.2;;;18.8;;
68872;SDS011;55907;50.806;12.882;2023-06-22T02:06:59;19.7;;;18.3;;
68872;SDS011;55907;50.806;12.882;2023-06-22T02:10:01;20.5;;;19.0;;
68872;SDS011;55907;50.806;12.882;2023-06-22T02:13:03;20.3;;;18.9;;
68872;SDS011;55907;50.806;12.882;2023-06-22T02:16:04;20.1;;;18.7;;
68872;SDS011;55907;50.806;12.882;2023-06-22T02:22:07;19.8;;;18.4;;
68872;SDS011;55907;50.806;12.882;2023-06-22T02:25:08;19.9;;;18.5;;
68872;SDS011;55907;50.806;12.882;2023-06-22T02:28:10;19.5;;;18.1;;
68872;SDS011;55907;50.806;12.882;2023-06-22T02:31:11;19.2;;;17.8;;
68872;SDS011;55907;50.806;12.882;2023-06-22T02:34:12;20.0;;;18.6;;
68872;SDS011;55907;50.806;12.882;2023-06-22T02:37:14;19.8;;;18.4;;
68872;SDS011;55907;50.806;12.882;2023-06-22T02:40:15;20.2;;;18.8;;
68872;SDS011;55907;50.806;12.882;2023-06-22T02:43:17;20.0;;;18.6;;
68872;SDS011;55907;50.806;12.882;2023-06-22T02:46:18;20.2;;;18.8;;
68872;SDS011;55907;50.806;12.882;2023-06-22T02:52:21;19.9;;;18.5;;
68872;SDS011;55907;50.806;12.882;2023-06-22T02:55:23;19.7;;;18.3;;
68872;SDS011;55907;50.806;12.882;2023-06-22T03:01:26;20.5;;;19.1;;
68872;SDS011;55907;50.806;12.882;2023-06-22T03:04:27;19.8;;;18.4;;
68872;SDS011;55907;50.806;12.882;2023-06-22T03:07:28;20.0;;;18.6;;
68872;SDS011;55907;50.806;12.882;2023-06-22T03:10:30;19.8;;;18.4;;
68872;SDS011;55907;50.806;12.882;2023-06-22T03:16:33;20.1;;;18.7;;
68872;SDS011;55907;50.806;12.882;2023-06-22T03:19:34;20.5;;;19.1;;
68872;SDS011;55907;50.806;12.882;2023-06-22T03:22:35;20.4;;;19.0;;
68872;SDS011;55907;50.806;12.882;2023-06-22T03:25:37;20.3;;;18.9;;
68872;SDS011;55907;50.806;12.882;2023-06-22T03:28:38;19.8;;;18.4;;
68872;SDS011;55907;50.806;12.882;2023-06-22T03:31:40;19.3;;;17.9;;
68872;SDS011;55907;50.806;12.882;2023-06-22T03:34:41;19.5;;;18.1;;
68872;SDS011;55907;50.806;12.882;2023-06-22T03:37:43;19.2;;;17.8;;
68872;SDS011;55907;50.806;12.882;2023-06-22T03:40:44;19.3;;;17.9;;
68872;SDS011;55907;50.806;12.882;2023-06-22T03:43:46;18.3;;;17.0;;
68872;SDS011;55907;50.806;12.882;2023-06-22T03:46:47;20.2;;;18.8;;
68872;SDS011;55907;50.806;12.882;2023-06-22T03:49:48;19.8;;;18.4;;
68872;SDS011;55907;50.806;12.882;2023-06-22T03:52:50;19.1;;;17.7;;
68872;SDS011;55907;50.806;12.882;2023-06-22T03:55:51;20.4;;;19.0;;
68872;SDS011;55907;50.806;12.882;2023-06-22T03:58:53;18.6;;;17.3;;
68872;SDS011;55907;50.806;12.882;2023-06-22T04:01:54;20.3;;;18.9;;
68872;SDS011;55907;50.806;12.882;2023-06-22T04:04:56;19.1;;;17.7;;
68872;SDS011;55907;50.806;12.882;2023-06-22T04:10:58;20.2;;;18.8;;
68872;SDS011;55907;50.806;12.882;2023-06-22T04:14:00;20.3;;;18.9;;
68872;SDS011;55907;50.806;12.882;2023-06-22T04:17:01;20.6;;;19.2;;
68872;SDS011;55907;50.806;12.882;2023-06-22T04:20:03;20.2;;;18.8;;
68872;SDS011;55907;50.806;12.882;2023-06-22T04:23:04;19.1;;;17.7;;
68872;SDS011;55907;50.806;12.882;2023-06-22T04:26:06;20.9;;;19.4;;
68872;SDS011;55907;50.806;12.882;2023-06-22T04:29:07;18.9;;;17.6;;
68872;SDS011;55907;50.806;12.882;2023-06-22T04:32:09;20.1;;;18.7;;
68872;SDS011;55907;50.806;12.882;2023-06-22T04:35:10;20.0;;;18.6;;
68872;SDS011;55907;50.806;12.882;2023-06-22T04:38:12;20.4;;;19.0;;
68872;SDS011;55907;50.806;12.882;2023-06-22T04:44:15;19.8;;;18.4;;
68872;SDS011;55907;50.806;12.882;2023-06-22T04:47:16;19.9;;;18.5;;
68872;SDS011;55907;50.806;12.882;2023-06-22T04:50:17;20.9;;;19.4;;
68872;SDS011;55907;50.806;12.882;2023-06-22T04:53:18;19.4;;;18.0;;
68872;SDS011;55907;50.806;12.882;2023-06-22T04:56:20;21.1;;;19.6;;
68872;SDS011;55907;50.806;12.882;2023-06-22T04:59:21;19.5;;;18.1;;
68872;SDS011;55907;50.806;12.882;2023-06-22T05:02:23;20.6;;;19.2;;
68872;SDS011;55907;50.806;12.882;2023-06-22T05:05:24;19.2;;;17.8;;
68872;SDS011;55907;50.806;12.882;2023-06-22T05:08:25;19.4;;;18.0;;
68872;SDS011;55907;50.806;12.882;2023-06-22T05:11:27;20.1;;;18.7;;
68872;SDS011;55907;50.806;12.882;2023-06-22T05:14:28;20.0;;;18.6;;
68872;SDS011;55907;50.806;12.882;2023-06-22T05:17:30;19.7;;;18.3;;
68872;SDS011;55907;50.806;12.882;2023-06-22T05:23:32;19.9;;;18.5;;
68872;SDS011;55907;50.806;12.882;2023-06-22T05:26:34;19.8;;;18.4;;
68872;SDS011;55907;50.806;12.882;2023-06-22T05:29:35;20.1;;;18.7;;
68872;SDS011;55907;50.806;12.882;2023-06-22T05:32:36;19.4;;;18.0;;
68872;SDS011;55907;50.806;12.882;2023-06-22T05:35:38;20.2;;;18.8;;
68872;SDS011;55907;50.806;12.882;2023-06-22T05:38:39;20.4;;;19.0;;
68872;SDS011;55907;50.806;12.882;2023-06-22T05:41:41;19.7;;;18.3;;
68872;SDS011;55907;50.806;12.882;2023-06-22T05:44:42;20.8;;;19.3;;
68872;SDS011;55907;50.806;12.882;2023-06-22T05:47:43;20.1;;;18.7;;
68872;SDS011;55907;50.806;12.882;2023-06-22T05:50:45;20.3;;;18.9;;
68872;SDS011;55907;50.806;12.882;2023-06-22T05:53:46;20.0;;;18.6;;
68872;SDS011;55907;50.806;12.882;2023-06-22T05:56:47;19.7;;;18.3;;
68872;SDS011;55907;50.806;12.882;2023-06-22T05:59:49;19.8;;;18.4;;
68872;SDS011;55907;50.806;12.882;2023-06-22T06:02:50;19.5;;;18.1;;
68872;SDS011;55907;50.806;12.882;2023-06-22T06:05:51;20.1;;;18.7;;
68872;SDS011;55907;50.806;12.882;2023-06-22T06:08:53;20.2;;;18.8;;
68872;SDS011;55907;50.806;12.882;2023-06-22T06:11:54;20.8;;;19.3;;
68872;SDS011;55907;50.806;12.882;2023-06-22T06:14:55;20.5;;;19.1;;
68872;SDS011;55907;50.806;12.882;2023-06-22T06:17:57;20.2;;;18.8;;
68872;SDS011;55907;50.806;12.882;2023-06-22T06:20:58;21.8;;;20.3;;
68872;SDS011;55907;50.806;12.882;2023-06-22T06:23:59;21.4;;;19.9;;
68872;SDS011;55907;50.806;12.882;2023-06-22T06:27:01;20.8;;;19.3;;
68872;SDS011;55907;50.806;12.882;2023-06-22T06:30:02;18.8;;;17.5;;
68872;SDS011;55907;50.806;12.882;2023-06-22T06:33:03;19.0;;;17.7;;
68872;SDS011;55907;50.806;12.882;2023-06-22T06:36:05;21.3;;;19.8;;
68872;SDS011;55907;50.806;12.882;2023-06-22T06:39:06;19.7;;;18.3;;
68872;SDS011;55907;50.806;12.882;2023-06-22T06:45:09;17.7;;;16.4;;
68872;SDS011;55907;50.806;12.882;2023-06-22T06:48:10;20.3;;;18.9;;
68872;SDS011;55907;50.806;12.882;2023-06-22T06:51:11;21.1;;;19.6;;
68872;SDS011;55907;50.806;12.882;2023-06-22T06:54:13;21.8;;;20.3;;
68872;SDS011;55907;50.806;12.882;2023-06-22T06:57:14;20.3;;;18.9;;
68872;SDS011;55907;50.806;12.882;2023-06-22T07:00:16;20.5;;;19.1;;
68872;SDS011;55907;50.806;12.882;2023-06-22T07:03:17;21.6;;;20.1;;
68872;SDS011;55907;50.806;12.882;2023-06-22T07:06:18;21.5;;;20.0;;
68872;SDS011;55907;50.806;12.882;2023-06-22T07:09:20;21.9;;;20.4;;
68872;SDS011;55907;50.806;12.882;2023-06-22T07:12:21;21.0;;;19.5;;
68872;SDS011;55907;50.806;12.882;2023-06-22T07:15:22;21.6;;;20.1;;
68872;SDS011;55907;50.806;12.882;2023-06-22T07:18:24;22.1;;;20.6;;
68872;SDS011;55907;50.806;12.882;2023-06-22T07:21:25;20.7;;;19.3;;
68872;SDS011;55907;50.806;12.882;2023-06-22T07:24:26;20.9;;;19.4;;
68872;SDS011;55907;50.806;12.882;2023-06-22T07:27:28;21.2;;;19.7;;
68872;SDS011;55907;50.806;12.882;2023-06-22T07:30:29;19.9;;;18.5;;
68872;SDS011;55907;50.806;12.882;2023-06-22T07:33:30;20.0;;;18.6;;
68872;SDS011;55907;50.806;12.882;2023-06-22T07:36:32;19.9;;;18.5;;
68872;SDS011;55907;50.806;12.882;2023-06-22T07:39:33;20.6;;;19.2;;
68872;SDS011;55907;50.806;12.882;2023-06-22T07:42:34;19.5;;;18.1;;
68872;SDS011;55907;50.806;12.882;2023-06-22T07:45:37;20.5;;;19.1;;
68872;SDS011;55907;50.806;12.882;2023-06-22T07:48:37;21.5;;;20.0;;
68872;SDS011;55907;50.806;12.882;2023-06-22T07:51:38;20.5;;;19.1;;
68872;SDS011;55907;50.806;12.882;2023-06-22T07:54:40;21.7;;;20.2;;
68872;SDS011;55907;50.806;12.882;2023-06-22T07:57:41;21.4;;;19.9;;
68872;SDS011;55907;50.806;12.882;2023-06-22T08:00:42;21.3;;;19.8;;
68872;SDS011;55907;50.806;12.882;2023-06-22T08:03:44;21.1;;;19.6;;
68872;SDS011;55907;50.806;12.882;2023-06-22T08:06:45;21.8;;;20.3;;
68872;SDS011;55907;50.806;12.882;2023-06-22T08:09:47;20.6;;;19.2;;
68872;SDS011;55907;50.806;12.882;2023-06-22T08:12:48;21.4;;;19.9;;
68872;SDS011;55907;50.806;12.882;2023-06-22T08:18:50;19.3;;;17.9;;
68872;SDS011;55907;50.806;12.882;2023-06-22T08:21:52;21.1;;;19.6;;
68872;SDS011;55907;50.806;12.882;2023-06-22T08:24:53;21.2;;;19.7;;
68872;SDS011;55907;50.806;12.882;2023-06-22T08:27:54;19.5;;;18.1;;
68872;SDS011;55907;50.806;12.882;2023-06-22T08:30:56;22.1;;;20.6;;
68872;SDS011;55907;50.806;12.882;2023-06-22T08:33:57;22.5;;;21.0;;
68872;SDS011;55907;50.806;12.882;2023-06-22T08:36:58;22.4;;;20.9;;
68872;SDS011;55907;50.806;12.882;2023-06-22T08:40:00;23.8;;;22.2;;
68872;SDS011;55907;50.806;12.882;2023-06-22T08:43:01;22.0;;;20.5;;
68872;SDS011;55907;50.806;12.882;2023-06-22T08:46:02;25.4;;;23.7;;
68872;SDS011;55907;50.806;12.882;2023-06-22T08:49:04;28.0;;;26.1;;
68872;SDS011;55907;50.806;12.882;2023-06-22T08:52:06;28.1;;;26.2;;
68872;SDS011;55907;50.806;12.882;2023-06-22T08:55:07;27.9;;;26.0;;
68872;SDS011;55907;50.806;12.882;2023-06-22T08:58:08;28.1;;;26.2;;
68872;SDS011;55907;50.806;12.882;2023-06-22T09:01:09;31.7;;;29.6;;
68872;SDS011;55907;50.806;12.882;2023-06-22T09:04:10;29.7;;;27.7;;
68872;SDS011;55907;50.806;12.882;2023-06-22T09:07:12;29.4;;;27.4;;
68872;SDS011;55907;50.806;12.882;2023-06-22T09:10:13;30.5;;;28.5;;
68872;SDS011;55907;50.806;12.882;2023-06-22T09:13:15;29.3;;;27.3;;
68872;SDS011;55907;50.806;12.882;2023-06-22T09:16:16;30.8;;;28.7;;
68872;SDS011;55907;50.806;12.882;2023-06-22T09:19:17;32.2;;;30.0;;
68872;SDS011;55907;50.806;12.882;2023-06-22T09:22:19;27.3;;;25.5;;
68872;SDS011;55907;50.806;12.882;2023-06-22T09:25:20;31.3;;;29.2;;
68872;SDS011;55907;50.806;12.882;2023-06-22T09:28:21;29.6;;;27.6;;
68872;SDS011;55907;50.806;12.882;2023-06-22T09:31:23;28.1;;;26.2;;
68872;SDS011;55907;50.806;12.882;2023-06-22T09:34:24;29.6;;;27.6;;
68872;SDS011;55907;50.806;12.882;2023-06-22T09:37:25;28.5;;;26.6;;
68872;SDS011;55907;50.806;12.882;2023-06-22T09:40:27;27.4;;;25.6;;
68872;SDS011;55907;50.806;12.882;2023-06-22T09:43:28;28.9;;;27.0;;
68872;SDS011;55907;50.806;12.882;2023-06-22T09:46:29;28.8;;;26.9;;
68872;SDS011;55907;50.806;12.882;2023-06-22T09:49:31;27.2;;;25.4;;
68872;SDS011;55907;50.806;12.882;2023-06-22T09:52:32;27.6;;;25.7;;
68872;SDS011;55907;50.806;12.882;2023-06-22T09:55:33;27.3;;;25.4;;
68872;SDS011;55907;50.806;12.882;2023-06-22T09:58:35;27.4;;;25.5;;
68872;SDS011;55907;50.806;12.882;2023-06-22T10:01:36;28.0;;;26.1;;
68872;SDS011;55907;50.806;12.882;2023-06-22T10:04:37;26.7;;;24.9;;
68872;SDS011;55907;50.806;12.882;2023-06-22T10:07:39;27.4;;;25.6;;
68872;SDS011;55907;50.806;12.882;2023-06-22T10:10:40;28.2;;;26.3;;
68872;SDS011;55907;50.806;12.882;2023-06-22T10:13:41;28.5;;;26.6;;
68872;SDS011;55907;50.806;12.882;2023-06-22T10:16:43;28.2;;;26.3;;
68872;SDS011;55907;50.806;12.882;2023-06-22T10:19:44;26.9;;;25.1;;
68872;SDS011;55907;50.806;12.882;2023-06-22T10:22:45;23.9;;;22.3;;
68872;SDS011;55907;50.806;12.882;2023-06-22T10:25:47;25.5;;;23.8;;
68872;SDS011;55907;50.806;12.882;2023-06-22T10:28:48;26.4;;;24.6;;
68872;SDS011;55907;50.806;12.882;2023-06-22T10:34:51;28.3;;;26.4;;
68872;SDS011;55907;50.806;12.882;2023-06-22T10:37:52;30.1;;;28.0;;
68872;SDS011;55907;50.806;12.882;2023-06-22T10:40:53;27.4;;;25.5;;
68872;SDS011;55907;50.806;12.882;2023-06-22T10:43:55;27.1;;;25.3;;
68872;SDS011;55907;50.806;12.882;2023-06-22T10:46:56;28.1;;;26.2;;
68872;SDS011;55907;50.806;12.882;2023-06-22T10:49:57;26.2;;;24.4;;
68872;SDS011;55907;50.806;12.882;2023-06-22T10:52:59;28.5;;;26.6;;
68872;SDS011;55907;50.806;12.882;2023-06-22T10:56:00;28.2;;;26.3;;
68872;SDS011;55907;50.806;12.882;2023-06-22T11:02:03;27.0;;;25.2;;
68872;SDS011;55907;50.806;12.882;2023-06-22T11:05:04;27.2;;;25.4;;
68872;SDS011;55907;50.806;12.882;2023-06-22T11:08:05;27.5;;;25.7;;
68872;SDS011;55907;50.806;12.882;2023-06-22T11:11:07;25.7;;;23.9;;
68872;SDS011;55907;50.806;12.882;2023-06-22T11:14:08;27.2;;;25.4;;
68872;SDS011;55907;50.806;12.882;2023-06-22T11:17:09;27.4;;;25.6;;
68872;SDS011;55907;50.806;12.882;2023-06-22T11:20:11;26.8;;;25.0;;
68872;SDS011;55907;50.806;12.882;2023-06-22T11:23:12;26.5;;;24.7;;
68872;SDS011;55907;50.806;12.882;2023-06-22T11:26:13;27.5;;;25.6;;
68872;SDS011;55907;50.806;12.882;2023-06-22T11:29:15;26.5;;;24.7;;
68872;SDS011;55907;50.806;12.882;2023-06-22T11:32:16;26.4;;;24.6;;
68872;SDS011;55907;50.806;12.882;2023-06-22T11:35:17;26.7;;;24.9;;
68872;SDS011;55907;50.806;12.882;2023-06-22T11:38:19;27.5;;;25.6;;
68872;SDS011;55907;50.806;12.882;2023-06-22T11:41:20;26.7;;;24.9;;
68872;SDS011;55907;50.806;12.882;2023-06-22T11:44:21;27.3;;;25.5;;
68872;SDS011;55907;50.806;12.882;2023-06-22T11:47:23;27.1;;;25.3;;
68872;SDS011;55907;50.806;12.882;2023-06-22T11:50:24;26.7;;;24.9;;
68872;SDS011;55907;50.806;12.882;2023-06-22T11:53:26;26.6;;;24.8;;
68872;SDS011;55907;50.806;12.882;2023-06-22T11:56:27;25.7;;;24.0;;
68872;SDS011;55907;50.806;12.882;2023-06-22T12:02:29;27.1;;;25.3;;
68872;SDS011;55907;50.806;12.882;2023-06-22T12:05:31;25.8;;;24.1;;
68872;SDS011;55907;50.806;12.882;2023-06-22T12:08:32;25.5;;;23.8;;
68872;SDS011;55907;50.806;12.882;2023-06-22T12:11:33;26.5;;;24.7;;
68872;SDS011;55907;50.806;12.882;2023-06-22T12:14:35;26.2;;;24.4;;
68872;SDS011;55907;50.806;12.882;2023-06-22T12:17:36;25.3;;;23.6;;
68872;SDS011;55907;50.806;12.882;2023-06-22T12:20:37;26.8;;;25.0;;
68872;SDS011;55907;50.806;12.882;2023-06-22T12:23:39;24.6;;;22.9;;
68872;SDS011;55907;50.806;12.882;2023-06-22T12:26:40;24.8;;;23.1;;
68872;SDS011;55907;50.806;12.882;2023-06-22T12:29:41;27.8;;;25.9;;
68872;SDS011;55907;50.806;12.882;2023-06-22T12:32:43;26.9;;;25.1;;
68872;SDS011;55907;50.806;12.882;2023-06-22T12:35:45;28.0;;;26.1;;
68872;SDS011;55907;50.806;12.882;2023-06-22T12:38:45;27.5;;;25.7;;
68872;SDS011;55907;50.806;12.882;2023-06-22T12:41:47;27.2;;;25.4;;
68872;SDS011;55907;50.806;12.882;2023-06-22T12:44:48;27.0;;;25.2;;
68872;SDS011;55907;50.806;12.882;2023-06-22T12:47:49;26.5;;;24.7;;
68872;SDS011;55907;50.806;12.882;2023-06-22T12:50:51;28.7;;;26.8;;
68872;SDS011;55907;50.806;12.882;2023-06-22T12:53:52;27.7;;;25.9;;
68872;SDS011;55907;50.806;12.882;2023-06-22T12:56:53;27.0;;;25.2;;
68872;SDS011;55907;50.806;12.882;2023-06-22T12:59:55;27.1;;;25.3;;
68872;SDS011;55907;50.806;12.882;2023-06-22T13:02:56;28.4;;;26.5;;
68872;SDS011;55907;50.806;12.882;2023-06-22T13:05:57;26.9;;;25.1;;
68872;SDS011;55907;50.806;12.882;2023-06-22T13:08:59;26.3;;;24.5;;
68872;SDS011;55907;50.806;12.882;2023-06-22T13:12:00;26.8;;;25.0;;
68872;SDS011;55907;50.806;12.882;2023-06-22T13:15:01;27.7;;;25.9;;
68872;SDS011;55907;50.806;12.882;2023-06-22T13:18:03;26.5;;;24.7;;
68872;SDS011;55907;50.806;12.882;2023-06-22T13:21:04;27.5;;;25.7;;
68872;SDS011;55907;50.806;12.882;2023-06-22T13:24:05;27.1;;;25.2;;
68872;SDS011;55907;50.806;12.882;2023-06-22T13:27:07;26.1;;;24.3;;
68872;SDS011;55907;50.806;12.882;2023-06-22T13:30:08;28.3;;;26.4;;
68872;SDS011;55907;50.806;12.882;2023-06-22T13:33:09;26.9;;;25.1;;
68872;SDS011;55907;50.806;12.882;2023-06-22T13:36:11;27.4;;;25.6;;
68872;SDS011;55907;50.806;12.882;2023-06-22T13:39:12;26.7;;;24.9;;
68872;SDS011;55907;50.806;12.882;2023-06-22T13:42:13;27.6;;;25.7;;
68872;SDS011;55907;50.806;12.882;2023-06-22T13:45:15;24.2;;;22.5;;
68872;SDS011;55907;50.806;12.882;2023-06-22T13:48:16;26.3;;;24.5;;
68872;SDS011;55907;50.806;12.882;2023-06-22T13:51:17;28.1;;;26.2;;
68872;SDS011;55907;50.806;12.882;2023-06-22T13:54:19;27.9;;;26.0;;
68872;SDS011;55907;50.806;12.882;2023-06-22T13:57:20;27.8;;;25.9;;
68872;SDS011;55907;50.806;12.882;2023-06-22T14:00:21;28.2;;;26.3;;
68872;SDS011;55907;50.806;12.882;2023-06-22T14:03:23;27.5;;;25.7;;
68872;SDS011;55907;50.806;12.882;2023-06-22T14:06:24;25.8;;;24.1;;
68872;SDS011;55907;50.806;12.882;2023-06-22T14:09:25;26.3;;;24.5;;
68872;SDS011;55907;50.806;12.882;2023-06-22T14:12:27;27.1;;;25.2;;
68872;SDS011;55907;50.806;12.882;2023-06-22T14:13:08;unavailable;;;unavailable;;
68872;SDS011;55907;50.806;12.882;2023-06-22T14:13:19;unknown;;;unknown;;
68872;SDS011;55907;50.806;12.882;2023-06-22T14:15:28;25.2;;;23.5;;
68872;SDS011;55907;50.806;12.882;2023-06-22T14:18:29;26.1;;;24.3;;
68872;SDS011;55907;50.806;12.882;2023-06-22T14:21:31;26.9;;;25.1;;
68872;SDS011;55907;50.806;12.882;2023-06-22T14:24:32;25.1;;;23.4;;
68872;SDS011;55907;50.806;12.882;2023-06-22T14:27:34;24.8;;;23.1;;
68872;SDS011;55907;50.806;12.882;2023-06-22T14:30:35;26.8;;;25.0;;
68872;SDS011;55907;50.806;12.882;2023-06-22T14:33:36;25.4;;;23.7;;
68872;SDS011;55907;50.806;12.882;2023-06-22T14:36:37;25.9;;;24.2;;
68872;SDS011;55907;50.806;12.882;2023-06-22T14:39:39;27.7;;;25.8;;
68872;SDS011;55907;50.806;12.882;2023-06-22T14:42:40;26.9;;;25.1;;
68872;SDS011;55907;50.806;12.882;2023-06-22T14:45:42;25.4;;;23.7;;
68872;SDS011;55907;50.806;12.882;2023-06-22T14:48:43;26.4;;;24.6;;
68872;SDS011;55907;50.806;12.882;2023-06-22T14:51:44;25.8;;;24.1;;
68872;SDS011;55907;50.806;12.882;2023-06-22T14:54:46;24.4;;;22.7;;
68872;SDS011;55907;50.806;12.882;2023-06-22T14:57:47;25.2;;;23.5;;
68872;SDS011;55907;50.806;12.882;2023-06-22T15:00:48;26.4;;;24.6;;
68872;SDS011;55907;50.806;12.882;2023-06-22T15:03:50;26.8;;;25.0;;
68872;SDS011;55907;50.806;12.882;2023-06-22T15:06:51;26.9;;;25.1;;
68872;SDS011;55907;50.806;12.882;2023-06-22T15:09:52;25.1;;;23.4;;
68872;SDS011;55907;50.806;12.882;2023-06-22T15:12:54;25.3;;;23.6;;
68872;SDS011;55907;50.806;12.882;2023-06-22T15:15:55;25.6;;;23.9;;
68872;SDS011;55907;50.806;12.882;2023-06-22T15:18:56;25.9;;;24.2;;
68872;SDS011;55907;50.806;12.882;2023-06-22T15:21:58;26.5;;;24.7;;
68872;SDS011;55907;50.806;12.882;2023-06-22T15:28:00;27.7;;;25.8;;
68872;SDS011;55907;50.806;12.882;2023-06-22T15:31:02;24.1;;;22.4;;
68872;SDS011;55907;50.806;12.882;2023-06-22T15:34:03;26.6;;;24.8;;
68872;SDS011;55907;50.806;12.882;2023-06-22T15:37:04;26.1;;;24.3;;
68872;SDS011;55907;50.806;12.882;2023-06-22T15:40:06;25.3;;;23.6;;
68872;SDS011;55907;50.806;12.882;2023-06-22T15:43:09;23.3;;;21.7;;
68872;SDS011;55907;50.806;12.882;2023-06-22T15:46:08;23.4;;;21.8;;
68872;SDS011;55907;50.806;12.882;2023-06-22T15:49:10;24.7;;;23.0;;
68872;SDS011;55907;50.806;12.882;2023-06-22T15:52:11;25.3;;;23.6;;
68872;SDS011;55907;50.806;12.882;2023-06-22T15:55:13;21.9;;;20.4;;
68872;SDS011;55907;50.806;12.882;2023-06-22T15:58:14;24.1;;;22.5;;
68872;SDS011;55907;50.806;12.882;2023-06-22T16:01:15;24.8;;;23.1;;
68872;SDS011;55907;50.806;12.882;2023-06-22T16:04:16;26.1;;;24.3;;
68872;SDS011;55907;50.806;12.882;2023-06-22T16:07:18;24.9;;;23.2;;
68872;SDS011;55907;50.806;12.882;2023-06-22T16:10:19;26.1;;;24.3;;
68872;SDS011;55907;50.806;12.882;2023-06-22T16:13:20;26.8;;;25.0;;
68872;SDS011;55907;50.806;12.882;2023-06-22T16:16:22;24.3;;;22.6;;
68872;SDS011;55907;50.806;12.882;2023-06-22T16:19:23;24.7;;;23.0;;
68872;SDS011;55907;50.806;12.882;2023-06-22T16:22:24;24.8;;;23.1;;
68872;SDS011;55907;50.806;12.882;2023-06-22T16:25:26;22.5;;;20.9;;
68872;SDS011;55907;50.806;12.882;2023-06-22T16:28:27;23.6;;;22.0;;
68872;SDS011;55907;50.806;12.882;2023-06-22T16:31:28;23.8;;;22.2;;
68872;SDS011;55907;50.806;12.882;2023-06-22T16:34:30;21.9;;;20.4;;
68872;SDS011;55907;50.806;12.882;2023-06-22T16:37:31;23.2;;;21.6;;
68872;SDS011;55907;50.806;12.882;2023-06-22T16:40:32;24.1;;;22.5;;
68872;SDS011;55907;50.806;12.882;2023-06-22T16:43:34;23.3;;;21.7;;
68872;SDS011;55907;50.806;12.882;2023-06-22T16:46:35;22.9;;;21.3;;
68872;SDS011;55907;50.806;12.882;2023-06-22T16:49:36;24.3;;;22.6;;
68872;SDS011;55907;50.806;12.882;2023-06-22T16:52:38;23.0;;;21.4;;
68872;SDS011;55907;50.806;12.882;2023-06-22T16:55:39;22.9;;;21.3;;
68872;SDS011;55907;50.806;12.882;2023-06-22T16:58:40;21.6;;;20.1;;
68872;SDS011;55907;50.806;12.882;2023-06-22T17:01:45;22.8;;;21.2;;
68872;SDS011;55907;50.806;12.882;2023-06-22T17:07:46;21.6;;;20.1;;
68872;SDS011;55907;50.806;12.882;2023-06-22T17:10:46;21.7;;;20.2;;
68872;SDS011;55907;50.806;12.882;2023-06-22T17:13:47;21.5;;;20.0;;
68872;SDS011;55907;50.806;12.882;2023-06-22T17:16:49;22.1;;;20.6;;
68872;SDS011;55907;50.806;12.882;2023-06-22T17:19:50;21.9;;;20.4;;
68872;SDS011;55907;50.806;12.882;2023-06-22T17:22:51;21.7;;;20.2;;
68872;SDS011;55907;50.806;12.882;2023-06-22T17:25:53;20.8;;;19.3;;
68872;SDS011;55907;50.806;12.882;2023-06-22T17:28:54;21.5;;;20.0;;
68872;SDS011;55907;50.806;12.882;2023-06-22T17:31:55;21.6;;;20.1;;
68872;SDS011;55907;50.806;12.882;2023-06-22T17:34:57;21.7;;;20.2;;
68872;SDS011;55907;50.806;12.882;2023-06-22T17:37:58;20.5;;;19.1;;
68872;SDS011;55907;50.806;12.882;2023-06-22T17:41:00;21.4;;;19.9;;
68872;SDS011;55907;50.806;12.882;2023-06-22T17:44:01;22.1;;;20.5;;
68872;SDS011;55907;50.806;12.882;2023-06-22T17:47:02;21.1;;;19.6;;
68872;SDS011;55907;50.806;12.882;2023-06-22T17:50:04;19.4;;;18.0;;
68872;SDS011;55907;50.806;12.882;2023-06-22T17:53:08;19.7;;;18.3;;
68872;SDS011;55907;50.806;12.882;2023-06-22T17:56:06;21.7;;;20.2;;
68872;SDS011;55907;50.806;12.882;2023-06-22T17:59:07;21.5;;;20.0;;
68872;SDS011;55907;50.806;12.882;2023-06-22T18:02:09;19.2;;;17.8;;
68872;SDS011;55907;50.806;12.882;2023-06-22T18:05:10;20.3;;;18.9;;
68872;SDS011;55907;50.806;12.882;2023-06-22T18:08:11;21.8;;;20.3;;
68872;SDS011;55907;50.806;12.882;2023-06-22T18:11:13;19.6;;;18.2;;
68872;SDS011;55907;50.806;12.882;2023-06-22T18:14:15;21.1;;;19.6;;
68872;SDS011;55907;50.806;12.882;2023-06-22T18:17:16;21.5;;;20.0;;
68872;SDS011;55907;50.806;12.882;2023-06-22T18:20:17;21.4;;;19.9;;
68872;SDS011;55907;50.806;12.882;2023-06-22T18:23:18;20.9;;;19.4;;
68872;SDS011;55907;50.806;12.882;2023-06-22T18:26:20;19.8;;;18.4;;
68872;SDS011;55907;50.806;12.882;2023-06-22T18:29:21;19.4;;;18.0;;
68872;SDS011;55907;50.806;12.882;2023-06-22T18:32:22;19.9;;;18.5;;
68872;SDS011;55907;50.806;12.882;2023-06-22T18:35:24;18.6;;;17.3;;
68872;SDS011;55907;50.806;12.882;2023-06-22T18:38:25;20.6;;;19.2;;
68872;SDS011;55907;50.806;12.882;2023-06-22T18:44:28;20.5;;;19.1;;
68872;SDS011;55907;50.806;12.882;2023-06-22T18:47:29;20.4;;;19.0;;
68872;SDS011;55907;50.806;12.882;2023-06-22T18:50:40;21.0;;;19.5;;